Austin, Mississippi
Current Conditions -  °F | °C
As of 11:55 AM on Saturday 25 Oct 2014 (Local Time) from KUTA Reporting Station
Clear Clear  
Wind Chill: 24°   Ceiling: Unl
Heat Index: 24°   Visibility: 10mi
Dew Point: 16°   Wind: 7mph
Humidity: 61%   Direction: 250°WSW
Pressure: 30.11"   Gusts: NA
Location:  34.6827°N, 90.3615°W
Report Text: KUTA 251655Z AUTO 25006KT 10SM CLR 24/16 A3011 RMK AO2
Loading
Personal Weather Stations






























Interactive Weather Map New forecast layout! Learn more

10-Day Weather Forecast

Advertisements
Track Severe Weather on mobile